sensor_id;sensor_type;location;lat;lon;timestamp;P1;durP1;ratioP1;P2;durP2;ratioP2
67867;SDS011;54672;46.096;14.470;2022-08-18T00:01:48;7.30;;;4.45;;
67867;SDS011;54672;46.096;14.470;2022-08-18T00:04:18;7.57;;;4.20;;
67867;SDS011;54672;46.096;14.470;2022-08-18T00:06:43;8.18;;;4.70;;
67867;SDS011;54672;46.096;14.470;2022-08-18T00:09:09;10.73;;;4.43;;
67867;SDS011;54672;46.096;14.470;2022-08-18T00:11:37;9.32;;;4.60;;
67867;SDS011;54672;46.096;14.470;2022-08-18T00:14:05;8.43;;;4.40;;
67867;SDS011;54672;46.096;14.470;2022-08-18T00:16:32;7.55;;;4.68;;
67867;SDS011;54672;46.096;14.470;2022-08-18T00:18:57;6.78;;;4.30;;
67867;SDS011;54672;46.096;14.470;2022-08-18T00:21:24;9.40;;;4.57;;
67867;SDS011;54672;46.096;14.470;2022-08-18T00:23:49;6.93;;;4.40;;
67867;SDS011;54672;46.096;14.470;2022-08-18T00:26:15;8.25;;;4.28;;
67867;SDS011;54672;46.096;14.470;2022-08-18T00:28:40;6.88;;;4.25;;
67867;SDS011;54672;46.096;14.470;2022-08-18T00:31:06;7.57;;;4.85;;
67867;SDS011;54672;46.096;14.470;2022-08-18T00:33:31;8.18;;;4.95;;
67867;SDS011;54672;46.096;14.470;2022-08-18T00:35:57;6.85;;;4.63;;
67867;SDS011;54672;46.096;14.470;2022-08-18T00:38:22;8.82;;;4.82;;
67867;SDS011;54672;46.096;14.470;2022-08-18T00:40:49;7.38;;;4.55;;
67867;SDS011;54672;46.096;14.470;2022-08-18T00:43:41;8.50;;;4.95;;
67867;SDS011;54672;46.096;14.470;2022-08-18T00:46:22;10.20;;;4.93;;
67867;SDS011;54672;46.096;14.470;2022-08-18T00:48:51;7.50;;;4.97;;
67867;SDS011;54672;46.096;14.470;2022-08-18T00:51:22;9.70;;;4.93;;
67867;SDS011;54672;46.096;14.470;2022-08-18T00:54:00;9.07;;;4.47;;
67867;SDS011;54672;46.096;14.470;2022-08-18T00:56:33;8.05;;;5.10;;
67867;SDS011;54672;46.096;14.470;2022-08-18T00:59:09;11.43;;;4.50;;
67867;SDS011;54672;46.096;14.470;2022-08-18T01:01:51;8.48;;;5.00;;
67867;SDS011;54672;46.096;14.470;2022-08-18T01:04:22;9.55;;;5.45;;
67867;SDS011;54672;46.096;14.470;2022-08-18T01:06:57;11.05;;;5.35;;
67867;SDS011;54672;46.096;14.470;2022-08-18T01:09:26;10.38;;;5.82;;
67867;SDS011;54672;46.096;14.470;2022-08-18T01:11:52;7.75;;;5.80;;
67867;SDS011;54672;46.096;14.470;2022-08-18T01:14:17;11.57;;;5.63;;
67867;SDS011;54672;46.096;14.470;2022-08-18T01:16:44;7.97;;;5.32;;
67867;SDS011;54672;46.096;14.470;2022-08-18T01:19:29;8.73;;;5.40;;
67867;SDS011;54672;46.096;14.470;2022-08-18T01:22:36;9.77;;;5.63;;
67867;SDS011;54672;46.096;14.470;2022-08-18T01:25:06;7.93;;;5.13;;
67867;SDS011;54672;46.096;14.470;2022-08-18T01:27:54;9.48;;;5.97;;
67867;SDS011;54672;46.096;14.470;2022-08-18T01:30:21;9.77;;;5.45;;
67867;SDS011;54672;46.096;14.470;2022-08-18T01:32:49;10.75;;;5.40;;
67867;SDS011;54672;46.096;14.470;2022-08-18T01:35:16;8.70;;;5.50;;
67867;SDS011;54672;46.096;14.470;2022-08-18T01:37:45;8.65;;;5.40;;
67867;SDS011;54672;46.096;14.470;2022-08-18T01:40:11;8.77;;;5.60;;
67867;SDS011;54672;46.096;14.470;2022-08-18T01:42:39;9.15;;;5.68;;
67867;SDS011;54672;46.096;14.470;2022-08-18T01:45:07;11.85;;;6.72;;
67867;SDS011;54672;46.096;14.470;2022-08-18T01:47:34;9.18;;;5.75;;
67867;SDS011;54672;46.096;14.470;2022-08-18T01:50:00;10.45;;;5.88;;
67867;SDS011;54672;46.096;14.470;2022-08-18T01:52:26;11.10;;;5.70;;
67867;SDS011;54672;46.096;14.470;2022-08-18T01:54:53;9.68;;;5.60;;
67867;SDS011;54672;46.096;14.470;2022-08-18T01:57:21;8.23;;;5.40;;
67867;SDS011;54672;46.096;14.470;2022-08-18T01:59:47;9.40;;;5.30;;
67867;SDS011;54672;46.096;14.470;2022-08-18T02:02:14;7.80;;;5.65;;
67867;SDS011;54672;46.096;14.470;2022-08-18T02:04:42;8.80;;;5.43;;
67867;SDS011;54672;46.096;14.470;2022-08-18T02:07:10;8.65;;;5.68;;
67867;SDS011;54672;46.096;14.470;2022-08-18T02:09:37;11.27;;;6.05;;
67867;SDS011;54672;46.096;14.470;2022-08-18T02:12:05;9.35;;;5.90;;
67867;SDS011;54672;46.096;14.470;2022-08-18T02:14:31;9.52;;;5.88;;
67867;SDS011;54672;46.096;14.470;2022-08-18T02:16:59;10.60;;;5.88;;
67867;SDS011;54672;46.096;14.470;2022-08-18T02:19:25;8.57;;;5.78;;
67867;SDS011;54672;46.096;14.470;2022-08-18T02:21:51;7.88;;;5.57;;
67867;SDS011;54672;46.096;14.470;2022-08-18T02:24:17;7.90;;;5.80;;
67867;SDS011;54672;46.096;14.470;2022-08-18T02:26:43;9.63;;;5.97;;
67867;SDS011;54672;46.096;14.470;2022-08-18T02:29:08;10.57;;;6.10;;
67867;SDS011;54672;46.096;14.470;2022-08-18T02:31:34;12.30;;;5.95;;
67867;SDS011;54672;46.096;14.470;2022-08-18T02:34:00;10.10;;;5.80;;
67867;SDS011;54672;46.096;14.470;2022-08-18T02:36:25;14.38;;;6.38;;
67867;SDS011;54672;46.096;14.470;2022-08-18T02:38:51;10.48;;;5.78;;
67867;SDS011;54672;46.096;14.470;2022-08-18T02:41:16;9.82;;;5.90;;
67867;SDS011;54672;46.096;14.470;2022-08-18T02:43:42;7.90;;;5.82;;
67867;SDS011;54672;46.096;14.470;2022-08-18T02:46:07;9.43;;;6.20;;
67867;SDS011;54672;46.096;14.470;2022-08-18T02:48:33;9.88;;;6.35;;
67867;SDS011;54672;46.096;14.470;2022-08-18T02:51:02;12.85;;;6.35;;
67867;SDS011;54672;46.096;14.470;2022-08-18T02:53:30;8.70;;;6.10;;
67867;SDS011;54672;46.096;14.470;2022-08-18T02:59:09;10.25;;;6.15;;
67867;SDS011;54672;46.096;14.470;2022-08-18T03:01:37;10.20;;;6.40;;
67867;SDS011;54672;46.096;14.470;2022-08-18T03:04:05;9.43;;;6.13;;
67867;SDS011;54672;46.096;14.470;2022-08-18T03:06:32;12.65;;;6.57;;
67867;SDS011;54672;46.096;14.470;2022-08-18T03:08:59;11.35;;;6.70;;
67867;SDS011;54672;46.096;14.470;2022-08-18T03:11:25;10.90;;;7.10;;
67867;SDS011;54672;46.096;14.470;2022-08-18T03:13:52;9.90;;;6.40;;
67867;SDS011;54672;46.096;14.470;2022-08-18T03:16:18;11.45;;;6.60;;
67867;SDS011;54672;46.096;14.470;2022-08-18T03:18:45;13.98;;;7.45;;
67867;SDS011;54672;46.096;14.470;2022-08-18T03:21:12;9.27;;;6.65;;
67867;SDS011;54672;46.096;14.470;2022-08-18T03:23:47;11.57;;;6.88;;
67867;SDS011;54672;46.096;14.470;2022-08-18T03:26:15;13.63;;;7.70;;
67867;SDS011;54672;46.096;14.470;2022-08-18T03:28:43;12.07;;;7.55;;
67867;SDS011;54672;46.096;14.470;2022-08-18T03:31:11;11.23;;;7.38;;
67867;SDS011;54672;46.096;14.470;2022-08-18T03:33:41;10.93;;;7.75;;
67867;SDS011;54672;46.096;14.470;2022-08-18T03:36:08;9.52;;;6.82;;
67867;SDS011;54672;46.096;14.470;2022-08-18T03:38:39;11.43;;;7.97;;
67867;SDS011;54672;46.096;14.470;2022-08-18T03:41:07;11.68;;;7.78;;
67867;SDS011;54672;46.096;14.470;2022-08-18T03:43:34;14.88;;;7.90;;
67867;SDS011;54672;46.096;14.470;2022-08-18T03:46:03;15.27;;;7.50;;
67867;SDS011;54672;46.096;14.470;2022-08-18T03:48:30;11.70;;;8.13;;
67867;SDS011;54672;46.096;14.470;2022-08-18T03:51:07;12.77;;;7.90;;
67867;SDS011;54672;46.096;14.470;2022-08-18T03:53:35;13.50;;;7.75;;
67867;SDS011;54672;46.096;14.470;2022-08-18T03:56:05;13.10;;;7.93;;
67867;SDS011;54672;46.096;14.470;2022-08-18T03:58:39;12.32;;;8.05;;
67867;SDS011;54672;46.096;14.470;2022-08-18T04:01:14;12.45;;;7.65;;
67867;SDS011;54672;46.096;14.470;2022-08-18T04:03:42;14.30;;;8.23;;
67867;SDS011;54672;46.096;14.470;2022-08-18T04:06:20;14.93;;;8.73;;
67867;SDS011;54672;46.096;14.470;2022-08-18T04:08:56;14.73;;;8.35;;
67867;SDS011;54672;46.096;14.470;2022-08-18T04:11:24;11.55;;;7.93;;
67867;SDS011;54672;46.096;14.470;2022-08-18T04:13:50;13.52;;;7.72;;
67867;SDS011;54672;46.096;14.470;2022-08-18T04:16:15;12.38;;;8.45;;
67867;SDS011;54672;46.096;14.470;2022-08-18T04:18:41;11.43;;;7.35;;
67867;SDS011;54672;46.096;14.470;2022-08-18T04:21:08;13.40;;;7.78;;
67867;SDS011;54672;46.096;14.470;2022-08-18T04:23:35;16.63;;;8.02;;
67867;SDS011;54672;46.096;14.470;2022-08-18T04:26:01;10.82;;;7.53;;
67867;SDS011;54672;46.096;14.470;2022-08-18T04:28:28;15.18;;;7.75;;
67867;SDS011;54672;46.096;14.470;2022-08-18T04:30:54;13.30;;;7.07;;
67867;SDS011;54672;46.096;14.470;2022-08-18T04:33:23;15.55;;;8.07;;
67867;SDS011;54672;46.096;14.470;2022-08-18T04:35:50;11.40;;;7.70;;
67867;SDS011;54672;46.096;14.470;2022-08-18T04:38:15;12.30;;;7.18;;
67867;SDS011;54672;46.096;14.470;2022-08-18T04:40:41;12.85;;;7.63;;
67867;SDS011;54672;46.096;14.470;2022-08-18T04:43:07;13.65;;;7.97;;
67867;SDS011;54672;46.096;14.470;2022-08-18T04:45:40;13.82;;;7.45;;
67867;SDS011;54672;46.096;14.470;2022-08-18T04:48:06;10.93;;;7.47;;
67867;SDS011;54672;46.096;14.470;2022-08-18T04:50:32;10.90;;;7.53;;
67867;SDS011;54672;46.096;14.470;2022-08-18T04:52:57;13.82;;;7.00;;
67867;SDS011;54672;46.096;14.470;2022-08-18T04:55:45;19.23;;;7.70;;
67867;SDS011;54672;46.096;14.470;2022-08-18T04:58:12;10.75;;;6.40;;
67867;SDS011;54672;46.096;14.470;2022-08-18T05:00:40;10.63;;;7.05;;
67867;SDS011;54672;46.096;14.470;2022-08-18T05:03:07;9.02;;;6.18;;
67867;SDS011;54672;46.096;14.470;2022-08-18T05:05:33;11.93;;;6.75;;
67867;SDS011;54672;46.096;14.470;2022-08-18T05:07:58;10.57;;;7.22;;
67867;SDS011;54672;46.096;14.470;2022-08-18T05:10:23;14.05;;;7.63;;
67867;SDS011;54672;46.096;14.470;2022-08-18T05:12:49;12.43;;;7.50;;
67867;SDS011;54672;46.096;14.470;2022-08-18T05:15:14;10.05;;;6.82;;
67867;SDS011;54672;46.096;14.470;2022-08-18T05:17:41;9.65;;;6.78;;
67867;SDS011;54672;46.096;14.470;2022-08-18T05:20:07;9.85;;;6.85;;
67867;SDS011;54672;46.096;14.470;2022-08-18T05:22:37;8.88;;;6.45;;
67867;SDS011;54672;46.096;14.470;2022-08-18T05:25:05;7.70;;;6.10;;
67867;SDS011;54672;46.096;14.470;2022-08-18T05:27:36;8.68;;;6.47;;
67867;SDS011;54672;46.096;14.470;2022-08-18T05:30:05;9.57;;;6.95;;
67867;SDS011;54672;46.096;14.470;2022-08-18T05:32:34;12.05;;;6.93;;
67867;SDS011;54672;46.096;14.470;2022-08-18T05:35:05;12.38;;;7.45;;
67867;SDS011;54672;46.096;14.470;2022-08-18T05:40:04;10.23;;;6.90;;
67867;SDS011;54672;46.096;14.470;2022-08-18T05:42:35;12.00;;;6.90;;
67867;SDS011;54672;46.096;14.470;2022-08-18T05:45:03;13.18;;;6.70;;
67867;SDS011;54672;46.096;14.470;2022-08-18T05:47:34;13.23;;;6.80;;
67867;SDS011;54672;46.096;14.470;2022-08-18T05:50:08;9.25;;;6.72;;
67867;SDS011;54672;46.096;14.470;2022-08-18T05:58:16;11.63;;;6.88;;
67867;SDS011;54672;46.096;14.470;2022-08-18T06:00:47;12.32;;;6.95;;
67867;SDS011;54672;46.096;14.470;2022-08-18T06:03:20;10.32;;;7.05;;
67867;SDS011;54672;46.096;14.470;2022-08-18T06:05:57;13.90;;;7.20;;
67867;SDS011;54672;46.096;14.470;2022-08-18T06:08:30;11.60;;;6.68;;
67867;SDS011;54672;46.096;14.470;2022-08-18T06:11:02;13.18;;;8.20;;
67867;SDS011;54672;46.096;14.470;2022-08-18T06:13:27;10.77;;;6.63;;
67867;SDS011;54672;46.096;14.470;2022-08-18T06:18:52;13.32;;;6.45;;
67867;SDS011;54672;46.096;14.470;2022-08-18T06:26:59;11.60;;;6.78;;
67867;SDS011;54672;46.096;14.470;2022-08-18T06:41:01;12.02;;;6.28;;
67867;SDS011;54672;46.096;14.470;2022-08-18T06:43:43;10.27;;;6.10;;
67867;SDS011;54672;46.096;14.470;2022-08-18T06:49:45;8.63;;;6.40;;
67867;SDS011;54672;46.096;14.470;2022-08-18T06:54:49;9.65;;;6.15;;
67867;SDS011;54672;46.096;14.470;2022-08-18T06:57:21;11.73;;;6.20;;
67867;SDS011;54672;46.096;14.470;2022-08-18T06:59:59;9.30;;;6.78;;
67867;SDS011;54672;46.096;14.470;2022-08-18T07:02:56;8.73;;;6.13;;
67867;SDS011;54672;46.096;14.470;2022-08-18T07:05:24;8.45;;;6.32;;
67867;SDS011;54672;46.096;14.470;2022-08-18T07:10:45;8.80;;;5.60;;
67867;SDS011;54672;46.096;14.470;2022-08-18T07:15:41;12.68;;;5.88;;
67867;SDS011;54672;46.096;14.470;2022-08-18T07:18:09;10.57;;;6.15;;
67867;SDS011;54672;46.096;14.470;2022-08-18T07:20:43;10.35;;;5.88;;
67867;SDS011;54672;46.096;14.470;2022-08-18T07:26:14;8.30;;;5.70;;
67867;SDS011;54672;46.096;14.470;2022-08-18T07:31:11;8.27;;;5.93;;
67867;SDS011;54672;46.096;14.470;2022-08-18T07:33:54;10.52;;;6.32;;
67867;SDS011;54672;46.096;14.470;2022-08-18T07:36:24;6.55;;;5.70;;
67867;SDS011;54672;46.096;14.470;2022-08-18T07:38:59;6.40;;;5.73;;
67867;SDS011;54672;46.096;14.470;2022-08-18T07:41:37;11.07;;;5.80;;
67867;SDS011;54672;46.096;14.470;2022-08-18T07:47:17;10.43;;;6.13;;
67867;SDS011;54672;46.096;14.470;2022-08-18T07:49:47;10.43;;;5.72;;
67867;SDS011;54672;46.096;14.470;2022-08-18T07:52:18;10.32;;;5.55;;
67867;SDS011;54672;46.096;14.470;2022-08-18T08:00:23;12.85;;;5.82;;
67867;SDS011;54672;46.096;14.470;2022-08-18T08:03:05;8.90;;;5.50;;
67867;SDS011;54672;46.096;14.470;2022-08-18T08:06:03;8.45;;;5.38;;
67867;SDS011;54672;46.096;14.470;2022-08-18T08:22:30;9.10;;;5.80;;
67867;SDS011;54672;46.096;14.470;2022-08-18T08:30:24;9.07;;;5.55;;
67867;SDS011;54672;46.096;14.470;2022-08-18T08:35:37;9.65;;;5.15;;
67867;SDS011;54672;46.096;14.470;2022-08-18T08:38:26;8.52;;;5.03;;
67867;SDS011;54672;46.096;14.470;2022-08-18T08:41:07;8.07;;;4.88;;
67867;SDS011;54672;46.096;14.470;2022-08-18T08:44:14;11.40;;;5.13;;
67867;SDS011;54672;46.096;14.470;2022-08-18T08:46:49;8.15;;;5.43;;
67867;SDS011;54672;46.096;14.470;2022-08-18T08:49:28;9.23;;;5.32;;
67867;SDS011;54672;46.096;14.470;2022-08-18T08:52:00;11.70;;;5.30;;
67867;SDS011;54672;46.096;14.470;2022-08-18T08:59:40;8.10;;;4.22;;
67867;SDS011;54672;46.096;14.470;2022-08-18T09:02:14;6.40;;;4.32;;
67867;SDS011;54672;46.096;14.470;2022-08-18T09:08:14;7.88;;;4.40;;
67867;SDS011;54672;46.096;14.470;2022-08-18T09:11:05;5.82;;;4.40;;
67867;SDS011;54672;46.096;14.470;2022-08-18T09:13:58;8.30;;;4.97;;
67867;SDS011;54672;46.096;14.470;2022-08-18T09:21:53;10.27;;;4.90;;
67867;SDS011;54672;46.096;14.470;2022-08-18T09:24:39;10.18;;;5.28;;
67867;SDS011;54672;46.096;14.470;2022-08-18T09:29:59;7.53;;;3.83;;
67867;SDS011;54672;46.096;14.470;2022-08-18T09:37:57;8.95;;;4.20;;
67867;SDS011;54672;46.096;14.470;2022-08-18T09:41:06;8.57;;;3.50;;
67867;SDS011;54672;46.096;14.470;2022-08-18T09:57:26;9.32;;;3.30;;
67867;SDS011;54672;46.096;14.470;2022-08-18T09:59:57;4.65;;;3.00;;
67867;SDS011;54672;46.096;14.470;2022-08-18T10:07:45;6.10;;;3.10;;
67867;SDS011;54672;46.096;14.470;2022-08-18T10:18:32;8.13;;;2.88;;
67867;SDS011;54672;46.096;14.470;2022-08-18T10:23:57;7.35;;;2.80;;
67867;SDS011;54672;46.096;14.470;2022-08-18T10:29:03;7.50;;;2.63;;
67867;SDS011;54672;46.096;14.470;2022-08-18T10:39:44;6.53;;;3.13;;
67867;SDS011;54672;46.096;14.470;2022-08-18T10:42:20;4.30;;;3.15;;
67867;SDS011;54672;46.096;14.470;2022-08-18T10:45:01;7.70;;;3.53;;
67867;SDS011;54672;46.096;14.470;2022-08-18T10:47:31;5.47;;;3.20;;
67867;SDS011;54672;46.096;14.470;2022-08-18T10:49:57;5.30;;;2.80;;
67867;SDS011;54672;46.096;14.470;2022-08-18T10:55:22;6.90;;;3.20;;
67867;SDS011;54672;46.096;14.470;2022-08-18T11:04:04;4.60;;;2.92;;
67867;SDS011;54672;46.096;14.470;2022-08-18T11:06:37;4.90;;;2.85;;
67867;SDS011;54672;46.096;14.470;2022-08-18T11:09:05;6.95;;;3.17;;
67867;SDS011;54672;46.096;14.470;2022-08-18T11:11:37;5.43;;;3.10;;
67867;SDS011;54672;46.096;14.470;2022-08-18T11:19:22;7.15;;;3.10;;
67867;SDS011;54672;46.096;14.470;2022-08-18T11:21:49;6.10;;;3.08;;
67867;SDS011;54672;46.096;14.470;2022-08-18T11:24:18;6.35;;;3.03;;
67867;SDS011;54672;46.096;14.470;2022-08-18T11:26:52;4.18;;;3.00;;
67867;SDS011;54672;46.096;14.470;2022-08-18T11:34:49;9.65;;;3.78;;
67867;SDS011;54672;46.096;14.470;2022-08-18T11:37:23;5.80;;;2.83;;
67867;SDS011;54672;46.096;14.470;2022-08-18T11:39:51;6.03;;;2.92;;
67867;SDS011;54672;46.096;14.470;2022-08-18T11:42:25;5.57;;;2.80;;
67867;SDS011;54672;46.096;14.470;2022-08-18T11:44:53;5.05;;;3.03;;
67867;SDS011;54672;46.096;14.470;2022-08-18T11:47:26;5.68;;;3.42;;
67867;SDS011;54672;46.096;14.470;2022-08-18T11:50:13;4.05;;;3.03;;
67867;SDS011;54672;46.096;14.470;2022-08-18T11:52:48;7.05;;;3.10;;
67867;SDS011;54672;46.096;14.470;2022-08-18T11:55:19;6.07;;;3.08;;
67867;SDS011;54672;46.096;14.470;2022-08-18T11:57:56;8.23;;;2.90;;
67867;SDS011;54672;46.096;14.470;2022-08-18T12:00:35;5.60;;;3.10;;
67867;SDS011;54672;46.096;14.470;2022-08-18T12:03:04;9.35;;;3.30;;
67867;SDS011;54672;46.096;14.470;2022-08-18T12:05:43;5.78;;;3.00;;
67867;SDS011;54672;46.096;14.470;2022-08-18T12:09:06;6.25;;;2.97;;
67867;SDS011;54672;46.096;14.470;2022-08-18T12:11:33;7.38;;;2.67;;
67867;SDS011;54672;46.096;14.470;2022-08-18T12:14:09;13.63;;;3.35;;
67867;SDS011;54672;46.096;14.470;2022-08-18T12:16:45;6.18;;;2.90;;
67867;SDS011;54672;46.096;14.470;2022-08-18T12:19:12;8.15;;;2.88;;
67867;SDS011;54672;46.096;14.470;2022-08-18T12:21:40;6.35;;;2.75;;
67867;SDS011;54672;46.096;14.470;2022-08-18T12:24:12;6.72;;;2.60;;
67867;SDS011;54672;46.096;14.470;2022-08-18T12:26:46;5.78;;;2.80;;
67867;SDS011;54672;46.096;14.470;2022-08-18T12:29:12;7.45;;;2.75;;
67867;SDS011;54672;46.096;14.470;2022-08-18T12:31:38;6.05;;;2.85;;
67867;SDS011;54672;46.096;14.470;2022-08-18T12:34:03;5.45;;;2.97;;
67867;SDS011;54672;46.096;14.470;2022-08-18T12:36:29;8.05;;;2.65;;
67867;SDS011;54672;46.096;14.470;2022-08-18T12:38:55;6.07;;;2.50;;
67867;SDS011;54672;46.096;14.470;2022-08-18T12:41:21;8.75;;;2.45;;
67867;SDS011;54672;46.096;14.470;2022-08-18T12:43:47;15.93;;;2.80;;
67867;SDS011;54672;46.096;14.470;2022-08-18T12:46:12;6.18;;;1.75;;
67867;SDS011;54672;46.096;14.470;2022-08-18T12:48:38;15.77;;;1.38;;
67867;SDS011;54672;46.096;14.470;2022-08-18T12:51:04;15.00;;;1.80;;
67867;SDS011;54672;46.096;14.470;2022-08-18T12:53:31;11.10;;;0.98;;
67867;SDS011;54672;46.096;14.470;2022-08-18T12:55:56;3.08;;;0.93;;
67867;SDS011;54672;46.096;14.470;2022-08-18T12:58:22;3.55;;;1.20;;
67867;SDS011;54672;46.096;14.470;2022-08-18T13:00:47;4.70;;;1.40;;
67867;SDS011;54672;46.096;14.470;2022-08-18T13:03:13;1.75;;;0.90;;
67867;SDS011;54672;46.096;14.470;2022-08-18T13:05:38;4.50;;;1.00;;
67867;SDS011;54672;46.096;14.470;2022-08-18T13:08:05;1.65;;;1.05;;
67867;SDS011;54672;46.096;14.470;2022-08-18T13:10:39;3.38;;;0.98;;
67867;SDS011;54672;46.096;14.470;2022-08-18T13:13:05;8.25;;;1.30;;
67867;SDS011;54672;46.096;14.470;2022-08-18T13:15:31;2.22;;;1.15;;
67867;SDS011;54672;46.096;14.470;2022-08-18T13:17:57;4.35;;;1.10;;
67867;SDS011;54672;46.096;14.470;2022-08-18T13:20:23;2.95;;;1.02;;
67867;SDS011;54672;46.096;14.470;2022-08-18T13:22:48;10.88;;;1.48;;
67867;SDS011;54672;46.096;14.470;2022-08-18T13:25:15;4.68;;;1.50;;
67867;SDS011;54672;46.096;14.470;2022-08-18T13:27:42;3.03;;;1.27;;
67867;SDS011;54672;46.096;14.470;2022-08-18T13:30:12;4.55;;;1.30;;
67867;SDS011;54672;46.096;14.470;2022-08-18T13:32:39;4.60;;;1.10;;
67867;SDS011;54672;46.096;14.470;2022-08-18T13:35:05;4.07;;;1.45;;
67867;SDS011;54672;46.096;14.470;2022-08-18T13:37:32;2.30;;;1.30;;
67867;SDS011;54672;46.096;14.470;2022-08-18T13:39:58;5.00;;;1.45;;
67867;SDS011;54672;46.096;14.470;2022-08-18T13:42:24;3.20;;;1.40;;
67867;SDS011;54672;46.096;14.470;2022-08-18T13:44:53;3.47;;;1.48;;
67867;SDS011;54672;46.096;14.470;2022-08-18T13:47:19;7.53;;;1.50;;
67867;SDS011;54672;46.096;14.470;2022-08-18T13:49:45;6.88;;;1.77;;
67867;SDS011;54672;46.096;14.470;2022-08-18T13:52:11;4.75;;;1.92;;
67867;SDS011;54672;46.096;14.470;2022-08-18T13:54:37;6.45;;;2.25;;
67867;SDS011;54672;46.096;14.470;2022-08-18T13:57:03;4.05;;;1.58;;
67867;SDS011;54672;46.096;14.470;2022-08-18T13:59:29;3.15;;;1.67;;
67867;SDS011;54672;46.096;14.470;2022-08-18T14:02:02;5.10;;;1.65;;
67867;SDS011;54672;46.096;14.470;2022-08-18T14:04:32;6.45;;;1.90;;
67867;SDS011;54672;46.096;14.470;2022-08-18T14:06:57;5.40;;;1.70;;
67867;SDS011;54672;46.096;14.470;2022-08-18T14:09:25;5.10;;;1.60;;
67867;SDS011;54672;46.096;14.470;2022-08-18T14:11:51;4.20;;;1.98;;
67867;SDS011;54672;46.096;14.470;2022-08-18T14:14:17;4.28;;;1.60;;
67867;SDS011;54672;46.096;14.470;2022-08-18T14:16:44;4.25;;;1.60;;
67867;SDS011;54672;46.096;14.470;2022-08-18T14:19:10;5.32;;;1.65;;
67867;SDS011;54672;46.096;14.470;2022-08-18T14:21:54;5.57;;;1.58;;
67867;SDS011;54672;46.096;14.470;2022-08-18T14:24:39;5.30;;;2.63;;
67867;SDS011;54672;46.096;14.470;2022-08-18T14:27:26;3.17;;;1.63;;
67867;SDS011;54672;46.096;14.470;2022-08-18T14:29:55;4.07;;;1.50;;
67867;SDS011;54672;46.096;14.470;2022-08-18T14:32:22;3.65;;;1.50;;
67867;SDS011;54672;46.096;14.470;2022-08-18T14:34:51;4.72;;;2.03;;
67867;SDS011;54672;46.096;14.470;2022-08-18T14:37:17;5.28;;;1.92;;
67867;SDS011;54672;46.096;14.470;2022-08-18T14:39:44;4.65;;;1.92;;
67867;SDS011;54672;46.096;14.470;2022-08-18T14:42:11;3.47;;;1.67;;
67867;SDS011;54672;46.096;14.470;2022-08-18T14:44:39;4.57;;;1.70;;
67867;SDS011;54672;46.096;14.470;2022-08-18T14:47:05;3.65;;;1.73;;
67867;SDS011;54672;46.096;14.470;2022-08-18T14:49:31;5.72;;;2.38;;
67867;SDS011;54672;46.096;14.470;2022-08-18T14:51:57;7.95;;;1.58;;
67867;SDS011;54672;46.096;14.470;2022-08-18T14:54:24;4.40;;;1.73;;
67867;SDS011;54672;46.096;14.470;2022-08-18T14:56:49;6.32;;;1.70;;
67867;SDS011;54672;46.096;14.470;2022-08-18T14:59:15;3.85;;;1.52;;
67867;SDS011;54672;46.096;14.470;2022-08-18T15:01:40;5.28;;;1.80;;
67867;SDS011;54672;46.096;14.470;2022-08-18T15:04:07;5.40;;;1.35;;
67867;SDS011;54672;46.096;14.470;2022-08-18T15:06:34;7.00;;;2.35;;
67867;SDS011;54672;46.096;14.470;2022-08-18T15:09:00;4.28;;;1.60;;
67867;SDS011;54672;46.096;14.470;2022-08-18T15:11:25;3.92;;;1.83;;
67867;SDS011;54672;46.096;14.470;2022-08-18T15:13:54;3.80;;;1.55;;
67867;SDS011;54672;46.096;14.470;2022-08-18T15:16:20;3.80;;;1.70;;
67867;SDS011;54672;46.096;14.470;2022-08-18T15:18:47;5.32;;;1.60;;
67867;SDS011;54672;46.096;14.470;2022-08-18T15:21:13;3.45;;;1.27;;
67867;SDS011;54672;46.096;14.470;2022-08-18T15:23:57;3.78;;;1.90;;
67867;SDS011;54672;46.096;14.470;2022-08-18T15:26:52;5.18;;;2.03;;
67867;SDS011;54672;46.096;14.470;2022-08-18T15:29:22;5.32;;;1.88;;
67867;SDS011;54672;46.096;14.470;2022-08-18T15:31:47;5.30;;;1.70;;
67867;SDS011;54672;46.096;14.470;2022-08-18T15:34:13;4.68;;;1.70;;
67867;SDS011;54672;46.096;14.470;2022-08-18T15:36:40;4.60;;;1.67;;
67867;SDS011;54672;46.096;14.470;2022-08-18T15:39:06;8.75;;;3.33;;
67867;SDS011;54672;46.096;14.470;2022-08-18T15:41:33;6.68;;;1.90;;
67867;SDS011;54672;46.096;14.470;2022-08-18T15:44:01;2.85;;;1.70;;
67867;SDS011;54672;46.096;14.470;2022-08-18T15:46:30;4.43;;;1.75;;
67867;SDS011;54672;46.096;14.470;2022-08-18T15:48:58;4.85;;;1.60;;
67867;SDS011;54672;46.096;14.470;2022-08-18T15:51:24;4.38;;;1.58;;
67867;SDS011;54672;46.096;14.470;2022-08-18T15:53:50;5.07;;;2.20;;
67867;SDS011;54672;46.096;14.470;2022-08-18T15:56:20;3.80;;;1.80;;
67867;SDS011;54672;46.096;14.470;2022-08-18T15:58:48;4.18;;;1.70;;
67867;SDS011;54672;46.096;14.470;2022-08-18T16:01:14;3.67;;;1.77;;
67867;SDS011;54672;46.096;14.470;2022-08-18T16:03:40;3.20;;;1.70;;
67867;SDS011;54672;46.096;14.470;2022-08-18T16:06:06;3.00;;;1.80;;
67867;SDS011;54672;46.096;14.470;2022-08-18T16:08:37;4.43;;;2.08;;
67867;SDS011;54672;46.096;14.470;2022-08-18T16:11:06;5.63;;;2.05;;
67867;SDS011;54672;46.096;14.470;2022-08-18T16:13:33;3.72;;;1.80;;
67867;SDS011;54672;46.096;14.470;2022-08-18T16:15:59;3.85;;;1.65;;
67867;SDS011;54672;46.096;14.470;2022-08-18T16:18:31;5.28;;;2.00;;
67867;SDS011;54672;46.096;14.470;2022-08-18T16:21:01;5.80;;;1.90;;
67867;SDS011;54672;46.096;14.470;2022-08-18T16:23:31;4.63;;;1.73;;
67867;SDS011;54672;46.096;14.470;2022-08-18T16:26:00;6.15;;;1.95;;
67867;SDS011;54672;46.096;14.470;2022-08-18T16:28:28;7.40;;;1.90;;
67867;SDS011;54672;46.096;14.470;2022-08-18T16:30:55;6.15;;;2.13;;
67867;SDS011;54672;46.096;14.470;2022-08-18T16:33:21;7.60;;;2.15;;
67867;SDS011;54672;46.096;14.470;2022-08-18T16:35:47;4.43;;;1.92;;
67867;SDS011;54672;46.096;14.470;2022-08-18T16:38:15;4.25;;;2.10;;
67867;SDS011;54672;46.096;14.470;2022-08-18T16:40:41;6.03;;;2.13;;
67867;SDS011;54672;46.096;14.470;2022-08-18T16:43:06;7.47;;;2.10;;
67867;SDS011;54672;46.096;14.470;2022-08-18T16:45:33;4.13;;;2.15;;
67867;SDS011;54672;46.096;14.470;2022-08-18T16:48:00;4.82;;;1.80;;
67867;SDS011;54672;46.096;14.470;2022-08-18T16:50:27;3.35;;;2.05;;
67867;SDS011;54672;46.096;14.470;2022-08-18T16:52:52;4.15;;;2.05;;
67867;SDS011;54672;46.096;14.470;2022-08-18T16:55:19;4.90;;;2.03;;
67867;SDS011;54672;46.096;14.470;2022-08-18T16:57:44;5.10;;;2.15;;
67867;SDS011;54672;46.096;14.470;2022-08-18T17:00:29;5.65;;;2.95;;
67867;SDS011;54672;46.096;14.470;2022-08-18T17:03:15;6.53;;;2.13;;
67867;SDS011;54672;46.096;14.470;2022-08-18T17:06:00;7.18;;;1.92;;
67867;SDS011;54672;46.096;14.470;2022-08-18T17:08:27;6.03;;;2.38;;
67867;SDS011;54672;46.096;14.470;2022-08-18T17:10:53;5.07;;;1.90;;
67867;SDS011;54672;46.096;14.470;2022-08-18T17:13:19;8.20;;;3.75;;
67867;SDS011;54672;46.096;14.470;2022-08-18T17:15:48;5.90;;;2.10;;
67867;SDS011;54672;46.096;14.470;2022-08-18T17:18:14;8.95;;;2.08;;
67867;SDS011;54672;46.096;14.470;2022-08-18T17:20:40;6.55;;;1.80;;
67867;SDS011;54672;46.096;14.470;2022-08-18T17:23:06;9.63;;;2.17;;
67867;SDS011;54672;46.096;14.470;2022-08-18T17:25:32;3.60;;;1.80;;
67867;SDS011;54672;46.096;14.470;2022-08-18T17:27:58;4.55;;;1.95;;
67867;SDS011;54672;46.096;14.470;2022-08-18T17:30:26;5.85;;;1.95;;